CheckWX is a tool to help pilots better visualize weather data.  It is not intended as a substitute for an official pre-flight weather briefing.

20:10:36 UTC

KSCR METAR
Siler City Municipal Airport
Siler City, North Carolina, USA
Current

16 mins ago

KSCR 261955Z AUTO 32003KT 10SM CLR 29/17 A3014 RMK AO2 T02900169
Observed
Jun-26 @ 19:55 UTC
Wind
  • 320° at 3 KTS
Visibility
10 SM
Flight Rules
VFR
Cloud Levels
  • Clear skies
Temperature
29°C / 84°F
Dewpoint
17°C / 63°F
Heat Index
29°C / 85°F
Humidity
48%
Altimeter
30.14" Hg
Pressure
1020.62 hPa
Previous

36 mins ago

KSCR 261935Z AUTO 02004KT 10SM CLR 29/17 A3014 RMK AO2 T02900166
Observed
Jun-26 @ 19:35 UTC
Wind
  • 020° at 4 KTS
Visibility
10 SM
Flight Rules
VFR
Cloud Levels
  • Clear skies
Temperature
29°C / 84°F
Dewpoint
17°C / 63°F
Heat Index
29°C / 85°F
Humidity
48%
Altimeter
30.14" Hg
Pressure
1020.62 hPa
Previous

56 mins ago

KSCR 261915Z AUTO 04005KT 10SM CLR 29/16 A3014 RMK AO2 T02910159
Observed
Jun-26 @ 19:15 UTC
Wind
  • 040° at 5 KTS
Visibility
10 SM
Flight Rules
VFR
Cloud Levels
  • Clear skies
Temperature
29°C / 84°F
Dewpoint
16°C / 61°F
Heat Index
29°C / 84°F
Humidity
45%
Altimeter
30.14" Hg
Pressure
1020.62 hPa